sensor_id;sensor_type;location;lat;lon;timestamp;pressure;altitude;pressure_sealevel;temperature;humidity
34674;BME280;20879;55.668;37.858;2023-04-03T00:01:31;99529.13;;;7.86;75.87
34674;BME280;20879;55.668;37.858;2023-04-03T00:04:00;99532.59;;;7.79;75.69
34674;BME280;20879;55.668;37.858;2023-04-03T00:06:29;99526.63;;;7.77;76.00
34674;BME280;20879;55.668;37.858;2023-04-03T00:08:58;99526.66;;;7.70;76.07
34674;BME280;20879;55.668;37.858;2023-04-03T00:11:29;99534.44;;;7.64;76.31
34674;BME280;20879;55.668;37.858;2023-04-03T00:14:07;99527.63;;;7.54;77.01
34674;BME280;20879;55.668;37.858;2023-04-03T00:16:37;99534.59;;;7.37;76.76
34674;BME280;20879;55.668;37.858;2023-04-03T00:19:06;99539.84;;;7.16;77.48
34674;BME280;20879;55.668;37.858;2023-04-03T00:21:38;99536.47;;;6.94;78.44
34674;BME280;20879;55.668;37.858;2023-04-03T00:24:07;99533.94;;;6.80;78.94
34674;BME280;20879;55.668;37.858;2023-04-03T00:26:39;99536.56;;;6.60;79.79
34674;BME280;20879;55.668;37.858;2023-04-03T00:29:10;99541.72;;;6.54;80.54
34674;BME280;20879;55.668;37.858;2023-04-03T00:31:40;99540.84;;;6.57;80.88
34674;BME280;20879;55.668;37.858;2023-04-03T00:34:09;99540.84;;;6.55;81.01
34674;BME280;20879;55.668;37.858;2023-04-03T00:36:38;99535.72;;;6.49;81.66
34674;BME280;20879;55.668;37.858;2023-04-03T00:39:08;99531.47;;;6.36;81.98
34674;BME280;20879;55.668;37.858;2023-04-03T00:41:37;99534.88;;;6.35;82.11
34674;BME280;20879;55.668;37.858;2023-04-03T00:47:29;99540.00;;;6.48;84.77
34674;BME280;20879;55.668;37.858;2023-04-03T00:50:01;99537.44;;;6.42;82.33
34674;BME280;20879;55.668;37.858;2023-04-03T00:52:37;99531.47;;;6.36;82.44
34674;BME280;20879;55.668;37.858;2023-04-03T00:55:08;99542.59;;;6.42;82.67
34674;BME280;20879;55.668;37.858;2023-04-03T00:57:38;99548.59;;;6.43;82.14
34674;BME280;20879;55.668;37.858;2023-04-03T01:00:12;99537.44;;;6.44;82.95
34674;BME280;20879;55.668;37.858;2023-04-03T01:02:44;99540.03;;;6.38;82.69
34674;BME280;20879;55.668;37.858;2023-04-03T01:05:16;99528.91;;;6.12;83.13
34674;BME280;20879;55.668;37.858;2023-04-03T01:07:46;99550.31;;;6.11;83.43
34674;BME280;20879;55.668;37.858;2023-04-03T01:10:17;99532.28;;;5.91;83.54
34674;BME280;20879;55.668;37.858;2023-04-03T01:12:49;99544.28;;;5.88;84.36
34674;BME280;20879;55.668;37.858;2023-04-03T01:15:22;99540.81;;;5.75;85.20
34674;BME280;20879;55.668;37.858;2023-04-03T01:17:59;99541.66;;;5.74;85.13
34674;BME280;20879;55.668;37.858;2023-04-03T01:21:10;99533.13;;;5.76;86.26
34674;BME280;20879;55.668;37.858;2023-04-03T01:24:00;99532.28;;;5.88;85.36
34674;BME280;20879;55.668;37.858;2023-04-03T01:26:31;99514.28;;;5.82;84.61
34674;BME280;20879;55.668;37.858;2023-04-03T01:29:02;99519.44;;;5.88;84.64
34674;BME280;20879;55.668;37.858;2023-04-03T01:34:31;99538.34;;;6.12;84.22
34674;BME280;20879;55.668;37.858;2023-04-03T01:37:01;99492.00;;;5.83;84.04
34674;BME280;20879;55.668;37.858;2023-04-03T01:39:30;99540.88;;;6.01;84.31
34674;BME280;20879;55.668;37.858;2023-04-03T01:42:00;99539.13;;;5.88;84.47
34674;BME280;20879;55.668;37.858;2023-04-03T01:44:35;99498.00;;;5.57;84.79
34674;BME280;20879;55.668;37.858;2023-04-03T01:47:05;99518.53;;;5.60;85.25
34674;BME280;20879;55.668;37.858;2023-04-03T01:49:38;99534.84;;;5.73;86.49
34674;BME280;20879;55.668;37.858;2023-04-03T01:52:12;99539.94;;;5.60;85.33
34674;BME280;20879;55.668;37.858;2023-04-03T01:54:42;99539.94;;;5.53;86.04
34674;BME280;20879;55.668;37.858;2023-04-03T01:57:11;99518.47;;;5.35;85.97
34674;BME280;20879;55.668;37.858;2023-04-03T02:02:23;99511.63;;;5.34;85.95
34674;BME280;20879;55.668;37.858;2023-04-03T02:04:54;99535.63;;;5.49;86.23
34674;BME280;20879;55.668;37.858;2023-04-03T02:07:24;99512.50;;;5.33;86.27
34674;BME280;20879;55.668;37.858;2023-04-03T02:09:53;99537.34;;;5.40;86.03
34674;BME280;20879;55.668;37.858;2023-04-03T02:12:33;99543.31;;;5.38;86.47
34674;BME280;20879;55.668;37.858;2023-04-03T02:15:04;99535.59;;;5.27;86.64
34674;BME280;20879;55.668;37.858;2023-04-03T02:17:36;99535.53;;;5.22;86.84
34674;BME280;20879;55.668;37.858;2023-04-03T02:20:09;99540.66;;;5.16;88.25
34674;BME280;20879;55.668;37.858;2023-04-03T02:22:38;99544.06;;;5.11;87.87
34674;BME280;20879;55.668;37.858;2023-04-03T02:25:08;99536.31;;;5.00;88.46
34674;BME280;20879;55.668;37.858;2023-04-03T02:27:38;99522.53;;;4.76;88.50
34674;BME280;20879;55.668;37.858;2023-04-03T02:30:09;99548.22;;;4.85;89.27
34674;BME280;20879;55.668;37.858;2023-04-03T02:32:39;99543.91;;;4.81;89.63
34674;BME280;20879;55.668;37.858;2023-04-03T02:35:12;99543.91;;;4.80;90.20
34674;BME280;20879;55.668;37.858;2023-04-03T02:37:41;99545.63;;;4.76;90.51
34674;BME280;20879;55.668;37.858;2023-04-03T02:40:11;99537.84;;;4.68;90.95
34674;BME280;20879;55.668;37.858;2023-04-03T02:42:40;99547.31;;;4.76;90.84
34674;BME280;20879;55.668;37.858;2023-04-03T02:45:10;99549.03;;;4.77;90.73
34674;BME280;20879;55.668;37.858;2023-04-03T02:47:40;99550.75;;;4.78;90.33
34674;BME280;20879;55.668;37.858;2023-04-03T02:50:12;99540.44;;;4.70;90.35
34674;BME280;20879;55.668;37.858;2023-04-03T02:52:46;99554.16;;;4.73;90.13
34674;BME280;20879;55.668;37.858;2023-04-03T02:55:16;99530.94;;;4.57;90.36
34674;BME280;20879;55.668;37.858;2023-04-03T02:57:48;99554.97;;;4.68;91.00
34674;BME280;20879;55.668;37.858;2023-04-03T03:00:18;99557.53;;;4.71;90.78
34674;BME280;20879;55.668;37.858;2023-04-03T03:02:49;99539.50;;;4.55;90.82
34674;BME280;20879;55.668;37.858;2023-04-03T03:05:20;99561.81;;;4.66;91.16
34674;BME280;20879;55.668;37.858;2023-04-03T03:08:01;99559.25;;;4.69;91.65
34674;BME280;20879;55.668;37.858;2023-04-03T03:10:31;99549.81;;;4.65;91.42
34674;BME280;20879;55.668;37.858;2023-04-03T03:13:01;99557.56;;;4.72;91.63
34674;BME280;20879;55.668;37.858;2023-04-03T03:15:30;99562.75;;;4.80;91.22
34674;BME280;20879;55.668;37.858;2023-04-03T03:18:04;99563.59;;;4.82;91.08
34674;BME280;20879;55.668;37.858;2023-04-03T03:20:41;99561.88;;;4.83;91.08
34674;BME280;20879;55.668;37.858;2023-04-03T03:23:10;99568.75;;;4.88;90.63
34674;BME280;20879;55.668;37.858;2023-04-03T03:25:40;99560.25;;;4.94;90.28
34674;BME280;20879;55.668;37.858;2023-04-03T03:28:15;99561.09;;;4.95;90.40
34674;BME280;20879;55.668;37.858;2023-04-03T03:30:44;99565.41;;;4.99;89.93
34674;BME280;20879;55.668;37.858;2023-04-03T03:33:14;99542.25;;;4.88;89.68
34674;BME280;20879;55.668;37.858;2023-04-03T03:35:46;99565.44;;;5.06;90.21
34674;BME280;20879;55.668;37.858;2023-04-03T03:38:15;99574.88;;;5.12;89.81
34674;BME280;20879;55.668;37.858;2023-04-03T03:40:46;99567.16;;;5.12;89.54
34674;BME280;20879;55.668;37.858;2023-04-03T03:43:17;99544.00;;;4.94;89.42
34674;BME280;20879;55.668;37.858;2023-04-03T03:45:50;99533.75;;;4.95;88.88
34674;BME280;20879;55.668;37.858;2023-04-03T03:48:22;99569.78;;;5.20;88.94
34674;BME280;20879;55.668;37.858;2023-04-03T03:50:54;99561.22;;;5.19;88.81
34674;BME280;20879;55.668;37.858;2023-04-03T03:53:27;99555.19;;;5.10;88.74
34674;BME280;20879;55.668;37.858;2023-04-03T03:56:04;99574.13;;;5.33;88.52
34674;BME280;20879;55.668;37.858;2023-04-03T03:58:36;99571.56;;;5.39;88.39
34674;BME280;20879;55.668;37.858;2023-04-03T04:01:12;99565.59;;;5.51;87.93
34674;BME280;20879;55.668;37.858;2023-04-03T04:03:47;99545.03;;;5.42;87.55
34674;BME280;20879;55.668;37.858;2023-04-03T04:06:27;99563.94;;;5.70;87.28
34674;BME280;20879;55.668;37.858;2023-04-03T04:09:00;99547.69;;;5.71;87.18
34674;BME280;20879;55.668;37.858;2023-04-03T04:11:30;99575.16;;;6.02;86.70
34674;BME280;20879;55.668;37.858;2023-04-03T04:14:05;99577.75;;;6.14;86.15
34674;BME280;20879;55.668;37.858;2023-04-03T04:16:43;99573.44;;;6.21;85.85
34674;BME280;20879;55.668;37.858;2023-04-03T04:19:20;99581.16;;;6.41;85.88
34674;BME280;20879;55.668;37.858;2023-04-03T04:21:52;99576.00;;;6.62;84.93
34674;BME280;20879;55.668;37.858;2023-04-03T04:24:22;99578.56;;;6.79;84.37
34674;BME280;20879;55.668;37.858;2023-04-03T04:26:53;99575.13;;;6.80;83.75
34674;BME280;20879;55.668;37.858;2023-04-03T04:29:24;99573.41;;;6.75;83.04
34674;BME280;20879;55.668;37.858;2023-04-03T04:31:59;99581.97;;;6.81;83.05
34674;BME280;20879;55.668;37.858;2023-04-03T04:34:29;99577.69;;;6.90;83.09
34674;BME280;20879;55.668;37.858;2023-04-03T04:37:02;99576.81;;;6.97;82.32
34674;BME280;20879;55.668;37.858;2023-04-03T04:39:32;99549.34;;;6.93;81.91
34674;BME280;20879;55.668;37.858;2023-04-03T04:42:03;99574.13;;;7.20;81.61
34674;BME280;20879;55.668;37.858;2023-04-03T04:44:34;99568.94;;;7.34;80.36
34674;BME280;20879;55.668;37.858;2023-04-03T04:47:04;99550.16;;;7.12;80.86
34674;BME280;20879;55.668;37.858;2023-04-03T04:49:39;99535.56;;;7.09;80.52
34674;BME280;20879;55.668;37.858;2023-04-03T04:52:16;99553.50;;;7.32;80.37
34674;BME280;20879;55.668;37.858;2023-04-03T04:54:45;99569.69;;;7.59;80.21
34674;BME280;20879;55.668;37.858;2023-04-03T04:57:21;99572.09;;;7.87;79.05
34674;BME280;20879;55.668;37.858;2023-04-03T04:59:50;99573.66;;;8.10;78.67
34674;BME280;20879;55.668;37.858;2023-04-03T05:02:19;99564.09;;;8.22;77.55
34674;BME280;20879;55.668;37.858;2023-04-03T05:04:49;99578.69;;;8.25;76.49
34674;BME280;20879;55.668;37.858;2023-04-03T05:07:25;99575.28;;;8.23;76.47
34674;BME280;20879;55.668;37.858;2023-04-03T05:09:56;99576.09;;;8.28;76.45
34674;BME280;20879;55.668;37.858;2023-04-03T05:12:29;99578.59;;;8.40;76.64
34674;BME280;20879;55.668;37.858;2023-04-03T05:15:00;99547.63;;;8.40;75.96
34674;BME280;20879;55.668;37.858;2023-04-03T05:17:36;99535.53;;;8.46;74.70
34674;BME280;20879;55.668;37.858;2023-04-03T05:20:10;99563.81;;;8.61;74.83
34674;BME280;20879;55.668;37.858;2023-04-03T05:22:44;99564.56;;;8.68;74.61
34674;BME280;20879;55.668;37.858;2023-04-03T05:25:13;99573.94;;;8.78;74.19
34674;BME280;20879;55.668;37.858;2023-04-03T05:27:44;99578.88;;;9.00;73.87
34674;BME280;20879;55.668;37.858;2023-04-03T05:30:14;99586.50;;;9.14;73.70
34674;BME280;20879;55.668;37.858;2023-04-03T05:32:44;99566.91;;;8.92;73.04
34674;BME280;20879;55.668;37.858;2023-04-03T05:35:38;99598.78;;;8.88;72.05
34674;BME280;20879;55.668;37.858;2023-04-03T05:38:13;99593.81;;;8.73;73.10
34674;BME280;20879;55.668;37.858;2023-04-03T05:40:44;99595.50;;;8.76;73.73
34674;BME280;20879;55.668;37.858;2023-04-03T05:43:13;99589.53;;;8.67;73.20
34674;BME280;20879;55.668;37.858;2023-04-03T05:45:43;99597.94;;;8.89;73.61
34674;BME280;20879;55.668;37.858;2023-04-03T05:48:14;99592.50;;;9.14;72.58
34674;BME280;20879;55.668;37.858;2023-04-03T05:50:44;99597.47;;;9.31;71.44
34674;BME280;20879;55.668;37.858;2023-04-03T05:53:23;99594.91;;;9.30;71.12
34674;BME280;20879;55.668;37.858;2023-04-03T05:55:57;99588.03;;;9.30;71.85
34674;BME280;20879;55.668;37.858;2023-04-03T05:58:30;99564.00;;;9.22;71.05
34674;BME280;20879;55.668;37.858;2023-04-03T06:01:00;99589.38;;;9.60;70.79
34674;BME280;20879;55.668;37.858;2023-04-03T06:03:30;99599.28;;;9.91;70.21
34674;BME280;20879;55.668;37.858;2023-04-03T06:06:12;99597.41;;;10.00;67.73
34674;BME280;20879;55.668;37.858;2023-04-03T06:08:44;99580.34;;;9.89;68.72
34674;BME280;20879;55.668;37.858;2023-04-03T06:11:13;99588.16;;;9.85;69.30
34674;BME280;20879;55.668;37.858;2023-04-03T06:13:43;99600.31;;;9.78;69.01
34674;BME280;20879;55.668;37.858;2023-04-03T06:16:13;99594.38;;;9.71;69.48
34674;BME280;20879;55.668;37.858;2023-04-03T06:18:44;99586.50;;;9.79;69.78
34674;BME280;20879;55.668;37.858;2023-04-03T06:21:13;99588.63;;;10.11;69.02
34674;BME280;20879;55.668;37.858;2023-04-03T06:23:49;99582.28;;;10.32;67.81
34674;BME280;20879;55.668;37.858;2023-04-03T06:26:19;99591.13;;;10.72;67.38
34674;BME280;20879;55.668;37.858;2023-04-03T06:28:48;99602.66;;;11.01;66.71
34674;BME280;20879;55.668;37.858;2023-04-03T06:31:18;99595.41;;;11.18;65.80
34674;BME280;20879;55.668;37.858;2023-04-03T06:33:48;99584.91;;;11.28;64.83
34674;BME280;20879;55.668;37.858;2023-04-03T06:36:27;99591.00;;;11.24;64.52
34674;BME280;20879;55.668;37.858;2023-04-03T06:38:58;99571.81;;;10.89;64.46
34674;BME280;20879;55.668;37.858;2023-04-03T06:41:34;99602.44;;;11.13;64.57
34674;BME280;20879;55.668;37.858;2023-04-03T06:44:03;99593.34;;;11.36;64.11
34674;BME280;20879;55.668;37.858;2023-04-03T06:46:33;99596.00;;;11.75;63.77
34674;BME280;20879;55.668;37.858;2023-04-03T06:49:02;99596.19;;;12.06;62.61
34674;BME280;20879;55.668;37.858;2023-04-03T06:51:33;99603.81;;;12.14;60.17
34674;BME280;20879;55.668;37.858;2023-04-03T06:54:10;99599.94;;;11.92;60.95
34674;BME280;20879;55.668;37.858;2023-04-03T06:56:39;99605.53;;;11.75;62.20
34674;BME280;20879;55.668;37.858;2023-04-03T06:59:09;99595.06;;;11.78;62.48
34674;BME280;20879;55.668;37.858;2023-04-03T07:01:45;99592.09;;;11.56;61.89
34674;BME280;20879;55.668;37.858;2023-04-03T07:04:20;99597.66;;;11.37;61.77
34674;BME280;20879;55.668;37.858;2023-04-03T07:06:52;99600.22;;;11.39;61.76
34674;BME280;20879;55.668;37.858;2023-04-03T07:09:24;99604.09;;;11.61;61.78
34674;BME280;20879;55.668;37.858;2023-04-03T07:11:58;99601.19;;;11.75;61.58
34674;BME280;20879;55.668;37.858;2023-04-03T07:14:27;99602.72;;;11.84;61.20
34674;BME280;20879;55.668;37.858;2023-04-03T07:16:57;99596.34;;;11.99;61.45
34674;BME280;20879;55.668;37.858;2023-04-03T07:19:26;99603.84;;;12.13;60.69
34674;BME280;20879;55.668;37.858;2023-04-03T07:22:01;99606.53;;;12.44;60.46
34674;BME280;20879;55.668;37.858;2023-04-03T07:24:33;99402.09;;;11.49;59.24
34674;BME280;20879;55.668;37.858;2023-04-03T07:27:05;99585.19;;;12.67;59.69
34674;BME280;20879;55.668;37.858;2023-04-03T07:29:35;99608.00;;;12.89;58.77
34674;BME280;20879;55.668;37.858;2023-04-03T07:32:05;99577.41;;;12.31;58.61
34674;BME280;20879;55.668;37.858;2023-04-03T07:34:34;99602.16;;;12.10;60.16
34674;BME280;20879;55.668;37.858;2023-04-03T07:37:05;99578.59;;;11.80;60.33
34674;BME280;20879;55.668;37.858;2023-04-03T07:39:45;99586.47;;;11.76;60.10
34674;BME280;20879;55.668;37.858;2023-04-03T07:42:15;99612.50;;;12.12;60.59
34674;BME280;20879;55.668;37.858;2023-04-03T07:44:44;99590.78;;;12.50;59.92
34674;BME280;20879;55.668;37.858;2023-04-03T07:47:14;99595.78;;;12.92;58.62
34674;BME280;20879;55.668;37.858;2023-04-03T07:49:44;99614.50;;;13.05;57.78
34674;BME280;20879;55.668;37.858;2023-04-03T07:52:16;99611.28;;;13.28;57.83
34674;BME280;20879;55.668;37.858;2023-04-03T07:54:47;99601.28;;;13.13;56.96
34674;BME280;20879;55.668;37.858;2023-04-03T07:57:16;99605.56;;;13.16;57.86
34674;BME280;20879;55.668;37.858;2023-04-03T07:59:49;99611.25;;;12.97;57.57
34674;BME280;20879;55.668;37.858;2023-04-03T08:02:19;99590.09;;;12.78;57.37
34674;BME280;20879;55.668;37.858;2023-04-03T08:04:49;99612.38;;;13.20;57.73
34674;BME280;20879;55.668;37.858;2023-04-03T08:07:19;99600.13;;;13.56;56.95
34674;BME280;20879;55.668;37.858;2023-04-03T08:09:50;99616.91;;;14.04;55.68
34674;BME280;20879;55.668;37.858;2023-04-03T08:12:30;99613.75;;;14.21;54.95
34674;BME280;20879;55.668;37.858;2023-04-03T08:15:00;99615.66;;;14.16;54.95
34674;BME280;20879;55.668;37.858;2023-04-03T08:17:30;99602.00;;;13.81;54.95
34674;BME280;20879;55.668;37.858;2023-04-03T08:20:07;99602.72;;;13.56;55.31
34674;BME280;20879;55.668;37.858;2023-04-03T08:22:37;99593.94;;;13.60;55.27
34674;BME280;20879;55.668;37.858;2023-04-03T08:25:09;99606.28;;;13.82;54.33
34674;BME280;20879;55.668;37.858;2023-04-03T08:27:43;99590.84;;;13.76;55.04
34674;BME280;20879;55.668;37.858;2023-04-03T08:30:13;99608.47;;;13.96;54.55
34674;BME280;20879;55.668;37.858;2023-04-03T08:32:50;99613.09;;;14.14;53.18
34674;BME280;20879;55.668;37.858;2023-04-03T08:35:19;99596.50;;;14.17;53.71
34674;BME280;20879;55.668;37.858;2023-04-03T08:37:48;99625.19;;;14.44;53.25
34674;BME280;20879;55.668;37.858;2023-04-03T08:40:20;99624.50;;;14.65;52.20
34674;BME280;20879;55.668;37.858;2023-04-03T08:42:57;99621.09;;;14.63;51.63
34674;BME280;20879;55.668;37.858;2023-04-03T08:45:40;99608.88;;;14.65;50.98
34674;BME280;20879;55.668;37.858;2023-04-03T08:48:20;99624.00;;;14.81;51.68
34674;BME280;20879;55.668;37.858;2023-04-03T08:50:53;99629.66;;;14.94;51.50
34674;BME280;20879;55.668;37.858;2023-04-03T08:53:28;99628.53;;;15.01;51.06
34674;BME280;20879;55.668;37.858;2023-04-03T08:56:04;99591.13;;;14.77;49.91
34674;BME280;20879;55.668;37.858;2023-04-03T08:58:41;99576.03;;;14.61;50.63
34674;BME280;20879;55.668;37.858;2023-04-03T09:01:18;99632.41;;;14.36;50.26
34674;BME280;20879;55.668;37.858;2023-04-03T09:03:48;99622.56;;;14.17;52.23
34674;BME280;20879;55.668;37.858;2023-04-03T09:06:20;99647.34;;;14.57;51.71
34674;BME280;20879;55.668;37.858;2023-04-03T09:08:57;99648.66;;;14.71;51.36
34674;BME280;20879;55.668;37.858;2023-04-03T09:11:45;99643.69;;;14.90;50.24
34674;BME280;20879;55.668;37.858;2023-04-03T09:14:25;99645.53;;;14.86;50.45
34674;BME280;20879;55.668;37.858;2023-04-03T09:17:08;99647.91;;;14.39;50.95
34674;BME280;20879;55.668;37.858;2023-04-03T09:19:41;99655.91;;;14.06;52.08
34674;BME280;20879;55.668;37.858;2023-04-03T09:22:20;99656.63;;;13.81;53.04
34674;BME280;20879;55.668;37.858;2023-04-03T09:24:58;99650.84;;;13.71;53.45
34674;BME280;20879;55.668;37.858;2023-04-03T09:27:31;99662.97;;;13.72;53.51
34674;BME280;20879;55.668;37.858;2023-04-03T09:30:00;99646.22;;;14.09;52.78
34674;BME280;20879;55.668;37.858;2023-04-03T09:32:32;99672.38;;;14.63;52.57
34674;BME280;20879;55.668;37.858;2023-04-03T09:35:04;99663.19;;;14.78;51.70
34674;BME280;20879;55.668;37.858;2023-04-03T09:37:54;99648.34;;;14.80;52.01
34674;BME280;20879;55.668;37.858;2023-04-03T09:40:35;99664.53;;;15.15;51.10
34674;BME280;20879;55.668;37.858;2023-04-03T09:43:24;99654.69;;;15.23;50.89
34674;BME280;20879;55.668;37.858;2023-04-03T09:45:54;99644.94;;;15.52;50.78
34674;BME280;20879;55.668;37.858;2023-04-03T09:48:25;99656.25;;;16.00;49.02
34674;BME280;20879;55.668;37.858;2023-04-03T09:50:58;99662.53;;;16.18;48.29
34674;BME280;20879;55.668;37.858;2023-04-03T09:53:36;99652.03;;;16.19;47.91
34674;BME280;20879;55.668;37.858;2023-04-03T09:56:19;99661.19;;;16.07;48.01
34674;BME280;20879;55.668;37.858;2023-04-03T09:59:08;99664.72;;;16.06;47.56
34674;BME280;20879;55.668;37.858;2023-04-03T10:01:43;99647.91;;;16.14;47.43
34674;BME280;20879;55.668;37.858;2023-04-03T10:04:38;99654.03;;;16.35;46.96
34674;BME280;20879;55.668;37.858;2023-04-03T10:07:25;99651.47;;;16.33;46.45
34674;BME280;20879;55.668;37.858;2023-04-03T10:09:56;99651.59;;;16.08;47.43
34674;BME280;20879;55.668;37.858;2023-04-03T10:12:43;99654.59;;;16.21;46.90
34674;BME280;20879;55.668;37.858;2023-04-03T10:15:21;99652.88;;;16.42;46.42
34674;BME280;20879;55.668;37.858;2023-04-03T10:17:54;99635.41;;;16.42;46.03
34674;BME280;20879;55.668;37.858;2023-04-03T10:20:49;99656.00;;;16.72;45.61
34674;BME280;20879;55.668;37.858;2023-04-03T10:23:24;99652.09;;;16.83;44.78
34674;BME280;20879;55.668;37.858;2023-04-03T10:26:04;99662.47;;;16.84;44.61
34674;BME280;20879;55.668;37.858;2023-04-03T10:28:50;99642.66;;;16.78;44.33
34674;BME280;20879;55.668;37.858;2023-04-03T10:31:27;99658.25;;;17.02;43.47
34674;BME280;20879;55.668;37.858;2023-04-03T10:34:05;99652.63;;;16.91;44.13
34674;BME280;20879;55.668;37.858;2023-04-03T10:36:44;99643.88;;;16.92;44.21
34674;BME280;20879;55.668;37.858;2023-04-03T10:39:23;99605.16;;;16.37;44.21
34674;BME280;20879;55.668;37.858;2023-04-03T10:42:03;99647.19;;;16.53;44.45
34674;BME280;20879;55.668;37.858;2023-04-03T10:45:06;99645.03;;;16.20;45.05
34674;BME280;20879;55.668;37.858;2023-04-03T10:47:44;99644.31;;;16.38;45.20
34674;BME280;20879;55.668;37.858;2023-04-03T10:50:36;99618.72;;;16.47;43.74
34674;BME280;20879;55.668;37.858;2023-04-03T10:53:14;99641.03;;;16.11;44.01
34674;BME280;20879;55.668;37.858;2023-04-03T10:55:51;99648.31;;;16.25;44.06
34674;BME280;20879;55.668;37.858;2023-04-03T10:58:26;99644.78;;;16.26;44.03
34674;BME280;20879;55.668;37.858;2023-04-03T11:01:02;99611.72;;;16.25;43.91
34674;BME280;20879;55.668;37.858;2023-04-03T11:03:40;99637.63;;;16.31;43.63
34674;BME280;20879;55.668;37.858;2023-04-03T11:06:18;99652.28;;;16.56;43.92
34674;BME280;20879;55.668;37.858;2023-04-03T11:08:53;99605.06;;;16.40;42.70
34674;BME280;20879;55.668;37.858;2023-04-03T11:11:34;99646.88;;;16.40;43.07
34674;BME280;20879;55.668;37.858;2023-04-03T11:14:09;99639.31;;;16.10;42.86
34674;BME280;20879;55.668;37.858;2023-04-03T11:16:50;99647.31;;;15.83;43.08
34674;BME280;20879;55.668;37.858;2023-04-03T11:19:28;99651.59;;;15.86;43.95
34674;BME280;20879;55.668;37.858;2023-04-03T11:22:04;99645.53;;;15.60;43.90
34674;BME280;20879;55.668;37.858;2023-04-03T11:24:43;99644.50;;;15.41;44.46
34674;BME280;20879;55.668;37.858;2023-04-03T11:27:19;99649.16;;;15.32;44.54
34674;BME280;20879;55.668;37.858;2023-04-03T11:29:52;99632.41;;;15.14;45.33
34674;BME280;20879;55.668;37.858;2023-04-03T11:32:49;99653.56;;;15.30;45.45
34674;BME280;20879;55.668;37.858;2023-04-03T11:35:26;99605.47;;;14.89;45.81
34674;BME280;20879;55.668;37.858;2023-04-03T11:37:57;99649.44;;;14.99;46.66
34674;BME280;20879;55.668;37.858;2023-04-03T11:40:35;99637.41;;;14.42;46.98
34674;BME280;20879;55.668;37.858;2023-04-03T11:43:17;99652.50;;;14.30;46.94
34674;BME280;20879;55.668;37.858;2023-04-03T11:45:57;99655.13;;;14.02;47.56
34674;BME280;20879;55.668;37.858;2023-04-03T11:48:50;99657.88;;;13.97;48.62
34674;BME280;20879;55.668;37.858;2023-04-03T11:51:41;99632.84;;;13.93;48.51
34674;BME280;20879;55.668;37.858;2023-04-03T11:54:42;99645.09;;;14.18;48.46
34674;BME280;20879;55.668;37.858;2023-04-03T12:09:29;99655.06;;;13.75;49.66
34674;BME280;20879;55.668;37.858;2023-04-03T12:12:30;99652.69;;;13.68;50.26
34674;BME280;20879;55.668;37.858;2023-04-03T12:18:41;99657.06;;;13.66;50.58
34674;BME280;20879;55.668;37.858;2023-04-03T12:21:12;99652.75;;;13.64;50.79
34674;BME280;20879;55.668;37.858;2023-04-03T12:24:03;99649.16;;;13.69;50.62
34674;BME280;20879;55.668;37.858;2023-04-03T12:26:38;99631.88;;;13.68;51.01
34674;BME280;20879;55.668;37.858;2023-04-03T12:29:17;99655.13;;;14.02;50.56
34674;BME280;20879;55.668;37.858;2023-04-03T12:31:58;99650.97;;;13.96;50.65
34674;BME280;20879;55.668;37.858;2023-04-03T12:34:53;99656.16;;;13.96;50.82
34674;BME280;20879;55.668;37.858;2023-04-03T12:37:40;99655.41;;;13.93;50.55
34674;BME280;20879;55.668;37.858;2023-04-03T12:40:21;99620.41;;;13.73;50.71
34674;BME280;20879;55.668;37.858;2023-04-03T12:43:04;99651.59;;;14.05;51.05
34674;BME280;20879;55.668;37.858;2023-04-03T12:52:32;99677.50;;;13.48;52.27
34674;BME280;20879;55.668;37.858;2023-04-03T12:55:14;99682.38;;;13.27;52.80
34674;BME280;20879;55.668;37.858;2023-04-03T12:57:49;99613.66;;;13.05;52.68
34674;BME280;20879;55.668;37.858;2023-04-03T13:00:33;99639.59;;;13.39;52.97
34674;BME280;20879;55.668;37.858;2023-04-03T13:03:06;99659.94;;;13.56;52.70
34674;BME280;20879;55.668;37.858;2023-04-03T13:05:48;99660.03;;;13.53;52.76
34674;BME280;20879;55.668;37.858;2023-04-03T13:08:20;99655.66;;;13.54;52.68
34674;BME280;20879;55.668;37.858;2023-04-03T13:10:54;99658.81;;;13.65;52.44
34674;BME280;20879;55.668;37.858;2023-04-03T13:13:25;99653.75;;;13.60;52.66
34674;BME280;20879;55.668;37.858;2023-04-03T13:15:55;99663.56;;;13.51;53.19
34674;BME280;20879;55.668;37.858;2023-04-03T13:18:28;99660.53;;;13.33;53.56
34674;BME280;20879;55.668;37.858;2023-04-03T13:21:02;99653.28;;;13.13;53.87
34674;BME280;20879;55.668;37.858;2023-04-03T13:23:36;99667.03;;;12.84;54.95
34674;BME280;20879;55.668;37.858;2023-04-03T13:26:07;99644.25;;;12.59;54.93
34674;BME280;20879;55.668;37.858;2023-04-03T13:28:36;99669.84;;;12.76;55.39
34674;BME280;20879;55.668;37.858;2023-04-03T13:31:08;99668.59;;;12.91;55.38
34674;BME280;20879;55.668;37.858;2023-04-03T13:33:55;99671.59;;;13.08;54.93
34674;BME280;20879;55.668;37.858;2023-04-03T13:36:30;99667.31;;;13.06;55.26
34674;BME280;20879;55.668;37.858;2023-04-03T13:39:05;99664.13;;;12.96;56.20
34674;BME280;20879;55.668;37.858;2023-04-03T13:41:38;99669.50;;;12.90;56.02
34674;BME280;20879;55.668;37.858;2023-04-03T13:44:16;99670.38;;;12.89;56.06
34674;BME280;20879;55.668;37.858;2023-04-03T13:46:46;99665.69;;;12.69;56.44
34674;BME280;20879;55.668;37.858;2023-04-03T13:49:34;99665.88;;;12.61;57.10
34674;BME280;20879;55.668;37.858;2023-04-03T13:52:22;99640.25;;;12.46;56.69
34674;BME280;20879;55.668;37.858;2023-04-03T13:55:16;99670.91;;;12.67;57.16
34674;BME280;20879;55.668;37.858;2023-04-03T13:57:55;99671.91;;;12.62;57.06
34674;BME280;20879;55.668;37.858;2023-04-03T14:00:35;99666.63;;;12.65;56.70
34674;BME280;20879;55.668;37.858;2023-04-03T14:03:13;99638.72;;;12.37;57.20
34674;BME280;20879;55.668;37.858;2023-04-03T14:05:43;99666.16;;;12.49;57.47